sensor_id;sensor_type;location;lat;lon;timestamp;pressure;altitude;pressure_sealevel;temperature;humidity
25392;BME280;13329;48.402;11.718;2023-12-28T00:00:23;96436.81;;;3.41;90.04
25392;BME280;13329;48.402;11.718;2023-12-28T00:02:48;96437.81;;;3.46;87.76
25392;BME280;13329;48.402;11.718;2023-12-28T00:05:14;96440.84;;;3.50;85.97
25392;BME280;13329;48.402;11.718;2023-12-28T00:07:39;96436.81;;;3.41;85.94
25392;BME280;13329;48.402;11.718;2023-12-28T00:10:05;96436.78;;;3.54;86.16
25392;BME280;13329;48.402;11.718;2023-12-28T00:12:30;96436.63;;;3.55;85.01
25392;BME280;13329;48.402;11.718;2023-12-28T00:14:55;96442.00;;;3.67;83.93
25392;BME280;13329;48.402;11.718;2023-12-28T00:17:21;96443.63;;;3.55;83.40
25392;BME280;13329;48.402;11.718;2023-12-28T00:19:46;96439.59;;;3.59;83.21
25392;BME280;13329;48.402;11.718;2023-12-28T00:22:11;96454.84;;;3.75;82.81
25392;BME280;13329;48.402;11.718;2023-12-28T00:24:37;96441.59;;;3.83;81.86
25392;BME280;13329;48.402;11.718;2023-12-28T00:27:02;96437.16;;;3.77;80.42
25392;BME280;13329;48.402;11.718;2023-12-28T00:29:27;96436.00;;;3.33;81.49
25392;BME280;13329;48.402;11.718;2023-12-28T00:31:54;96434.59;;;3.04;81.74
25392;BME280;13329;48.402;11.718;2023-12-28T00:34:19;96440.19;;;1.86;87.62
25392;BME280;13329;48.402;11.718;2023-12-28T00:36:44;96439.19;;;2.21;89.11
25392;BME280;13329;48.402;11.718;2023-12-28T00:39:10;96434.22;;;2.26;88.79
25392;BME280;13329;48.402;11.718;2023-12-28T00:41:35;96427.09;;;2.55;87.67
25392;BME280;13329;48.402;11.718;2023-12-28T00:44:00;96431.50;;;2.61;87.01
25392;BME280;13329;48.402;11.718;2023-12-28T00:46:27;96433.31;;;2.67;85.87
25392;BME280;13329;48.402;11.718;2023-12-28T00:48:52;96432.72;;;2.65;85.63
25392;BME280;13329;48.402;11.718;2023-12-28T00:51:17;96421.75;;;2.96;83.52
25392;BME280;13329;48.402;11.718;2023-12-28T00:53:43;96427.56;;;2.85;81.54
25392;BME280;13329;48.402;11.718;2023-12-28T00:56:09;96421.56;;;3.18;80.45
25392;BME280;13329;48.402;11.718;2023-12-28T00:58:35;96433.16;;;2.82;81.89
25392;BME280;13329;48.402;11.718;2023-12-28T01:01:03;96443.94;;;2.59;83.09
25392;BME280;13329;48.402;11.718;2023-12-28T01:03:28;96437.09;;;2.51;83.32
25392;BME280;13329;48.402;11.718;2023-12-28T01:05:54;96428.63;;;2.43;83.59
25392;BME280;13329;48.402;11.718;2023-12-28T01:08:19;96438.16;;;2.16;85.84
25392;BME280;13329;48.402;11.718;2023-12-28T01:10:44;96435.09;;;2.53;84.57
25392;BME280;13329;48.402;11.718;2023-12-28T01:13:10;96445.09;;;2.50;84.25
25392;BME280;13329;48.402;11.718;2023-12-28T01:15:35;96434.91;;;2.55;82.07
25392;BME280;13329;48.402;11.718;2023-12-28T01:18:00;96436.94;;;2.66;82.03
25392;BME280;13329;48.402;11.718;2023-12-28T01:20:25;96443.59;;;2.89;80.61
25392;BME280;13329;48.402;11.718;2023-12-28T01:22:51;96452.03;;;3.04;79.18
25392;BME280;13329;48.402;11.718;2023-12-28T01:25:16;96461.69;;;3.23;77.76
25392;BME280;13329;48.402;11.718;2023-12-28T01:27:41;96459.28;;;3.28;77.63
25392;BME280;13329;48.402;11.718;2023-12-28T01:30:07;96450.66;;;3.48;76.01
25392;BME280;13329;48.402;11.718;2023-12-28T01:32:32;96462.28;;;3.65;75.72
25392;BME280;13329;48.402;11.718;2023-12-28T01:34:58;96472.72;;;3.65;74.77
25392;BME280;13329;48.402;11.718;2023-12-28T01:37:23;96476.69;;;3.88;73.24
25392;BME280;13329;48.402;11.718;2023-12-28T01:39:48;96483.34;;;3.83;71.94
25392;BME280;13329;48.402;11.718;2023-12-28T01:42:13;96480.50;;;3.92;71.87
25392;BME280;13329;48.402;11.718;2023-12-28T01:44:39;96478.09;;;3.97;70.79
25392;BME280;13329;48.402;11.718;2023-12-28T01:47:05;96478.53;;;3.80;72.14
25392;BME280;13329;48.402;11.718;2023-12-28T01:49:32;96474.91;;;3.88;72.29
25392;BME280;13329;48.402;11.718;2023-12-28T01:51:59;96479.31;;;3.88;72.29
25392;BME280;13329;48.402;11.718;2023-12-28T01:54:26;96467.66;;;3.97;71.22
25392;BME280;13329;48.402;11.718;2023-12-28T01:56:52;96475.72;;;3.69;72.54
25392;BME280;13329;48.402;11.718;2023-12-28T01:59:17;96487.97;;;3.81;72.88
25392;BME280;13329;48.402;11.718;2023-12-28T02:01:44;96472.31;;;3.68;72.99
25392;BME280;13329;48.402;11.718;2023-12-28T02:04:10;96479.13;;;3.63;73.61
25392;BME280;13329;48.402;11.718;2023-12-28T02:06:35;96480.16;;;3.48;74.00
25392;BME280;13329;48.402;11.718;2023-12-28T02:09:01;96472.91;;;3.44;73.97
25392;BME280;13329;48.402;11.718;2023-12-28T02:11:26;96470.84;;;2.86;75.66
25392;BME280;13329;48.402;11.718;2023-12-28T02:13:51;96462.84;;;2.94;75.64
25392;BME280;13329;48.402;11.718;2023-12-28T02:16:21;96465.88;;;3.11;75.95
25392;BME280;13329;48.402;11.718;2023-12-28T02:18:51;96466.50;;;3.26;74.40
25392;BME280;13329;48.402;11.718;2023-12-28T02:21:20;96466.91;;;3.23;73.76
25392;BME280;13329;48.402;11.718;2023-12-28T02:23:49;96476.50;;;3.16;73.64
25392;BME280;13329;48.402;11.718;2023-12-28T02:26:18;96469.31;;;3.38;73.57
25392;BME280;13329;48.402;11.718;2023-12-28T02:28:44;96462.88;;;3.54;72.18
25392;BME280;13329;48.402;11.718;2023-12-28T02:31:21;96467.50;;;3.52;72.09
25392;BME280;13329;48.402;11.718;2023-12-28T02:33:54;96475.34;;;3.52;71.51
25392;BME280;13329;48.402;11.718;2023-12-28T02:36:23;96480.56;;;3.65;69.81
25392;BME280;13329;48.402;11.718;2023-12-28T02:38:49;96470.13;;;3.65;70.80
25392;BME280;13329;48.402;11.718;2023-12-28T02:41:16;96475.28;;;3.92;70.24
25392;BME280;13329;48.402;11.718;2023-12-28T02:43:42;96475.47;;;4.03;68.84
25392;BME280;13329;48.402;11.718;2023-12-28T02:46:07;96467.28;;;3.73;70.65
25392;BME280;13329;48.402;11.718;2023-12-28T02:48:33;96466.88;;;3.90;70.12
25392;BME280;13329;48.402;11.718;2023-12-28T02:50:58;96470.91;;;3.59;70.55
25392;BME280;13329;48.402;11.718;2023-12-28T02:53:23;96478.53;;;3.80;69.69
25392;BME280;13329;48.402;11.718;2023-12-28T02:55:49;96463.25;;;3.91;68.65
25392;BME280;13329;48.402;11.718;2023-12-28T02:58:14;96474.06;;;4.01;66.63
25392;BME280;13329;48.402;11.718;2023-12-28T03:00:39;96467.06;;;3.95;68.52
25392;BME280;13329;48.402;11.718;2023-12-28T03:03:04;96472.53;;;3.47;70.02
25392;BME280;13329;48.402;11.718;2023-12-28T03:05:30;96464.69;;;3.47;71.36
25392;BME280;13329;48.402;11.718;2023-12-28T03:07:55;96458.03;;;3.77;70.94
25392;BME280;13329;48.402;11.718;2023-12-28T03:10:20;96458.44;;;3.88;69.60
25392;BME280;13329;48.402;11.718;2023-12-28T03:12:46;96456.22;;;3.91;69.33
25392;BME280;13329;48.402;11.718;2023-12-28T03:15:11;96452.81;;;3.77;69.63
25392;BME280;13329;48.402;11.718;2023-12-28T03:17:36;96466.28;;;3.68;69.91
25392;BME280;13329;48.402;11.718;2023-12-28T03:20:02;96471.09;;;3.77;68.09
25392;BME280;13329;48.402;11.718;2023-12-28T03:22:28;96458.25;;;3.63;69.13
25392;BME280;13329;48.402;11.718;2023-12-28T03:24:53;96462.06;;;3.73;69.21
25392;BME280;13329;48.402;11.718;2023-12-28T03:27:18;96466.44;;;3.93;68.52
25392;BME280;13329;48.402;11.718;2023-12-28T03:29:43;96470.31;;;3.70;68.49
25392;BME280;13329;48.402;11.718;2023-12-28T03:32:09;96470.50;;;3.89;68.46
25392;BME280;13329;48.402;11.718;2023-12-28T03:34:34;96469.88;;;3.93;68.13
25392;BME280;13329;48.402;11.718;2023-12-28T03:37:00;96484.56;;;3.21;70.13
25392;BME280;13329;48.402;11.718;2023-12-28T03:39:25;96474.13;;;3.28;70.72
25392;BME280;13329;48.402;11.718;2023-12-28T03:41:51;96478.72;;;3.59;69.71
25392;BME280;13329;48.402;11.718;2023-12-28T03:44:18;96484.53;;;3.34;70.81
25392;BME280;13329;48.402;11.718;2023-12-28T03:46:44;96480.94;;;3.22;70.63
25392;BME280;13329;48.402;11.718;2023-12-28T03:49:09;96493.19;;;3.42;70.04
25392;BME280;13329;48.402;11.718;2023-12-28T03:51:35;96490.16;;;3.45;71.10
25392;BME280;13329;48.402;11.718;2023-12-28T03:54:00;96485.38;;;3.42;68.59
25392;BME280;13329;48.402;11.718;2023-12-28T03:56:27;96490.19;;;3.65;68.50
25392;BME280;13329;48.402;11.718;2023-12-28T03:58:53;96481.94;;;3.81;68.09
25392;BME280;13329;48.402;11.718;2023-12-28T04:01:22;96495.41;;;3.65;69.57
25392;BME280;13329;48.402;11.718;2023-12-28T04:03:48;96493.19;;;3.48;69.35
25392;BME280;13329;48.402;11.718;2023-12-28T04:06:14;96491.72;;;2.93;71.62
25392;BME280;13329;48.402;11.718;2023-12-28T04:08:40;96489.91;;;3.00;72.02
25392;BME280;13329;48.402;11.718;2023-12-28T04:11:05;96485.84;;;2.77;72.83
25392;BME280;13329;48.402;11.718;2023-12-28T04:13:31;96491.69;;;2.79;72.90
25392;BME280;13329;48.402;11.718;2023-12-28T04:15:56;96487.91;;;2.95;72.56
25392;BME280;13329;48.402;11.718;2023-12-28T04:18:21;96499.53;;;2.99;72.19
25392;BME280;13329;48.402;11.718;2023-12-28T04:20:47;96495.38;;;3.18;71.29
25392;BME280;13329;48.402;11.718;2023-12-28T04:23:12;96493.16;;;3.15;71.29
25392;BME280;13329;48.402;11.718;2023-12-28T04:25:37;96495.41;;;3.31;69.79
25392;BME280;13329;48.402;11.718;2023-12-28T04:28:03;96486.94;;;3.29;70.16
25392;BME280;13329;48.402;11.718;2023-12-28T04:30:28;96483.34;;;3.30;70.11
25392;BME280;13329;48.402;11.718;2023-12-28T04:32:53;96496.75;;;3.07;70.58
25392;BME280;13329;48.402;11.718;2023-12-28T04:35:19;96497.75;;;3.06;71.16
25392;BME280;13329;48.402;11.718;2023-12-28T04:37:44;96495.88;;;2.80;71.83
25392;BME280;13329;48.402;11.718;2023-12-28T04:40:10;96503.75;;;2.94;71.71
25392;BME280;13329;48.402;11.718;2023-12-28T04:42:35;96498.13;;;2.83;71.91
25392;BME280;13329;48.402;11.718;2023-12-28T04:45:00;96498.97;;;3.04;71.90
25392;BME280;13329;48.402;11.718;2023-12-28T04:47:26;96501.34;;;3.05;71.47
25392;BME280;13329;48.402;11.718;2023-12-28T04:49:51;96503.53;;;2.89;72.11
25392;BME280;13329;48.402;11.718;2023-12-28T04:52:16;96504.97;;;2.98;71.59
25392;BME280;13329;48.402;11.718;2023-12-28T04:54:41;96504.94;;;2.91;71.61
25392;BME280;13329;48.402;11.718;2023-12-28T04:57:07;96506.44;;;2.59;71.89
25392;BME280;13329;48.402;11.718;2023-12-28T04:59:39;96508.09;;;2.73;72.14
25392;BME280;13329;48.402;11.718;2023-12-28T05:02:04;96501.25;;;2.66;72.72
25392;BME280;13329;48.402;11.718;2023-12-28T05:04:29;96506.47;;;2.66;72.88
25392;BME280;13329;48.402;11.718;2023-12-28T05:06:55;96500.41;;;2.52;73.55
25392;BME280;13329;48.402;11.718;2023-12-28T05:09:20;96507.16;;;2.40;74.01
25392;BME280;13329;48.402;11.718;2023-12-28T05:11:45;96504.81;;;2.51;74.50
25392;BME280;13329;48.402;11.718;2023-12-28T05:14:10;96505.69;;;2.72;73.02
25392;BME280;13329;48.402;11.718;2023-12-28T05:16:36;96510.13;;;2.85;72.22
25392;BME280;13329;48.402;11.718;2023-12-28T05:19:01;96503.88;;;2.72;72.76
25392;BME280;13329;48.402;11.718;2023-12-28T05:21:27;96510.81;;;2.58;72.75
25392;BME280;13329;48.402;11.718;2023-12-28T05:23:52;96511.16;;;2.36;73.96
25392;BME280;13329;48.402;11.718;2023-12-28T05:26:17;96515.66;;;2.55;74.17
25392;BME280;13329;48.402;11.718;2023-12-28T05:28:43;96512.41;;;2.46;73.87
25392;BME280;13329;48.402;11.718;2023-12-28T05:31:08;96507.47;;;2.71;74.05
25392;BME280;13329;48.402;11.718;2023-12-28T05:33:33;96514.75;;;2.89;72.96
25392;BME280;13329;48.402;11.718;2023-12-28T05:35:58;96507.78;;;3.03;72.23
25392;BME280;13329;48.402;11.718;2023-12-28T05:38:24;96512.59;;;3.06;72.19
25392;BME280;13329;48.402;11.718;2023-12-28T05:40:49;96520.22;;;3.14;69.42
25392;BME280;13329;48.402;11.718;2023-12-28T05:43:14;96520.88;;;3.36;69.44
25392;BME280;13329;48.402;11.718;2023-12-28T05:45:39;96521.09;;;3.61;67.50
25392;BME280;13329;48.402;11.718;2023-12-28T05:48:05;96519.28;;;3.42;66.02
25392;BME280;13329;48.402;11.718;2023-12-28T05:50:30;96518.47;;;3.61;64.74
25392;BME280;13329;48.402;11.718;2023-12-28T05:52:56;96523.50;;;3.89;64.63
25392;BME280;13329;48.402;11.718;2023-12-28T05:55:21;96519.06;;;4.03;63.26
25392;BME280;13329;48.402;11.718;2023-12-28T05:57:46;96510.22;;;4.04;64.86
25392;BME280;13329;48.402;11.718;2023-12-28T06:00:13;96511.56;;;4.26;62.86
25392;BME280;13329;48.402;11.718;2023-12-28T06:02:38;96518.00;;;4.24;63.98
25392;BME280;13329;48.402;11.718;2023-12-28T06:05:04;96513.00;;;4.22;62.53
25392;BME280;13329;48.402;11.718;2023-12-28T06:07:29;96520.66;;;4.17;64.32
25392;BME280;13329;48.402;11.718;2023-12-28T06:09:54;96519.06;;;4.03;65.16
25392;BME280;13329;48.402;11.718;2023-12-28T06:12:20;96512.25;;;3.62;65.50
25392;BME280;13329;48.402;11.718;2023-12-28T06:14:45;96516.47;;;3.63;66.50
25392;BME280;13329;48.402;11.718;2023-12-28T06:17:10;96519.88;;;3.64;66.39
25392;BME280;13329;48.402;11.718;2023-12-28T06:19:36;96524.31;;;3.56;67.69
25392;BME280;13329;48.402;11.718;2023-12-28T06:22:01;96528.09;;;3.34;67.83
25392;BME280;13329;48.402;11.718;2023-12-28T06:24:26;96523.25;;;3.24;67.69
25392;BME280;13329;48.402;11.718;2023-12-28T06:26:51;96531.03;;;3.04;68.80
25392;BME280;13329;48.402;11.718;2023-12-28T06:29:17;96531.63;;;2.93;69.77
25392;BME280;13329;48.402;11.718;2023-12-28T06:31:42;96539.81;;;2.83;70.64
25392;BME280;13329;48.402;11.718;2023-12-28T06:34:07;96528.47;;;2.63;69.86
25392;BME280;13329;48.402;11.718;2023-12-28T06:36:33;96528.97;;;2.39;71.40
25392;BME280;13329;48.402;11.718;2023-12-28T06:38:59;96532.13;;;2.69;71.13
25392;BME280;13329;48.402;11.718;2023-12-28T06:41:25;96530.50;;;2.68;70.65
25392;BME280;13329;48.402;11.718;2023-12-28T06:43:51;96520.50;;;2.71;71.63
25392;BME280;13329;48.402;11.718;2023-12-28T06:46:17;96526.56;;;2.92;69.47
25392;BME280;13329;48.402;11.718;2023-12-28T06:48:42;96526.16;;;2.81;69.99
25392;BME280;13329;48.402;11.718;2023-12-28T06:51:09;96529.59;;;2.95;69.68
25392;BME280;13329;48.402;11.718;2023-12-28T06:53:34;96531.25;;;3.03;69.17
25392;BME280;13329;48.402;11.718;2023-12-28T06:55:59;96529.44;;;3.03;69.49
25392;BME280;13329;48.402;11.718;2023-12-28T06:58:25;96533.84;;;3.16;69.16
25392;BME280;13329;48.402;11.718;2023-12-28T07:00:50;96533.69;;;3.18;68.73
25392;BME280;13329;48.402;11.718;2023-12-28T07:03:16;96529.88;;;3.27;67.71
25392;BME280;13329;48.402;11.718;2023-12-28T07:05:41;96530.44;;;3.09;68.35
25392;BME280;13329;48.402;11.718;2023-12-28T07:08:06;96534.84;;;3.08;68.80
25392;BME280;13329;48.402;11.718;2023-12-28T07:10:31;96528.44;;;3.04;68.72
25392;BME280;13329;48.402;11.718;2023-12-28T07:12:57;96527.47;;;3.12;68.33
25392;BME280;13329;48.402;11.718;2023-12-28T07:15:22;96534.91;;;2.67;69.88
25392;BME280;13329;48.402;11.718;2023-12-28T07:17:47;96530.34;;;2.76;69.25
25392;BME280;13329;48.402;11.718;2023-12-28T07:20:12;96533.75;;;2.76;69.38
25392;BME280;13329;48.402;11.718;2023-12-28T07:22:38;96531.44;;;3.08;68.97
25392;BME280;13329;48.402;11.718;2023-12-28T07:25:07;96534.72;;;3.63;67.39
25392;BME280;13329;48.402;11.718;2023-12-28T07:27:33;96528.69;;;4.02;65.00
25392;BME280;13329;48.402;11.718;2023-12-28T07:29:59;96536.47;;;4.35;62.60
25392;BME280;13329;48.402;11.718;2023-12-28T07:32:25;96526.88;;;4.74;61.42
25392;BME280;13329;48.402;11.718;2023-12-28T07:34:52;96531.34;;;5.44;58.57
25392;BME280;13329;48.402;11.718;2023-12-28T07:37:18;96530.50;;;6.06;56.85
25392;BME280;13329;48.402;11.718;2023-12-28T07:39:43;96533.69;;;6.52;55.80
25392;BME280;13329;48.402;11.718;2023-12-28T07:42:08;96536.88;;;6.90;54.88
25392;BME280;13329;48.402;11.718;2023-12-28T07:44:34;96540.69;;;7.36;53.42
25392;BME280;13329;48.402;11.718;2023-12-28T07:47:00;96537.97;;;7.96;51.87
25392;BME280;13329;48.402;11.718;2023-12-28T07:49:25;96535.22;;;8.27;51.39
25392;BME280;13329;48.402;11.718;2023-12-28T07:51:51;96537.34;;;8.88;49.02
25392;BME280;13329;48.402;11.718;2023-12-28T07:54:16;96544.94;;;9.42;49.01
25392;BME280;13329;48.402;11.718;2023-12-28T07:56:41;96549.22;;;9.93;48.04
25392;BME280;13329;48.402;11.718;2023-12-28T07:59:07;96544.84;;;10.16;47.00
25392;BME280;13329;48.402;11.718;2023-12-28T08:01:34;96548.00;;;10.51;44.84
25392;BME280;13329;48.402;11.718;2023-12-28T08:03:59;96555.03;;;10.85;43.22
25392;BME280;13329;48.402;11.718;2023-12-28T08:06:25;96548.34;;;11.48;43.25
25392;BME280;13329;48.402;11.718;2023-12-28T08:08:50;96543.00;;;10.33;44.62
25392;BME280;13329;48.402;11.718;2023-12-28T08:11:16;96540.09;;;9.67;46.91
25392;BME280;13329;48.402;11.718;2023-12-28T08:13:41;96541.81;;;10.63;45.07
25392;BME280;13329;48.402;11.718;2023-12-28T08:16:07;96543.53;;;11.18;45.07
25392;BME280;13329;48.402;11.718;2023-12-28T08:18:32;96553.34;;;10.57;45.12
25392;BME280;13329;48.402;11.718;2023-12-28T08:20:57;96560.56;;;9.94;46.21
25392;BME280;13329;48.402;11.718;2023-12-28T08:23:22;96554.47;;;9.76;46.82
25392;BME280;13329;48.402;11.718;2023-12-28T08:25:48;96550.34;;;9.35;47.27
25392;BME280;13329;48.402;11.718;2023-12-28T08:28:13;96548.50;;;9.81;46.82
25392;BME280;13329;48.402;11.718;2023-12-28T08:30:38;96540.50;;;10.10;46.79
25392;BME280;13329;48.402;11.718;2023-12-28T08:33:04;96532.03;;;10.41;46.62
25392;BME280;13329;48.402;11.718;2023-12-28T08:35:29;96539.09;;;10.58;45.26
25392;BME280;13329;48.402;11.718;2023-12-28T08:37:54;96545.59;;;9.20;48.55
25392;BME280;13329;48.402;11.718;2023-12-28T08:40:20;96551.00;;;9.14;50.34
25392;BME280;13329;48.402;11.718;2023-12-28T08:42:45;96545.53;;;9.32;48.67
25392;BME280;13329;48.402;11.718;2023-12-28T08:45:10;96540.16;;;9.10;48.99
25392;BME280;13329;48.402;11.718;2023-12-28T08:47:36;96543.00;;;9.09;50.65
25392;BME280;13329;48.402;11.718;2023-12-28T08:50:01;96543.84;;;9.55;50.05
25392;BME280;13329;48.402;11.718;2023-12-28T08:52:26;96547.63;;;9.92;49.77
25392;BME280;13329;48.402;11.718;2023-12-28T08:54:51;96542.63;;;9.62;49.60
25392;BME280;13329;48.402;11.718;2023-12-28T08:57:17;96544.19;;;9.75;50.26
25392;BME280;13329;48.402;11.718;2023-12-28T08:59:42;96549.81;;;9.50;51.66
25392;BME280;13329;48.402;11.718;2023-12-28T09:02:08;96549.41;;;9.41;52.09
25392;BME280;13329;48.402;11.718;2023-12-28T09:04:33;96540.84;;;9.34;53.07
25392;BME280;13329;48.402;11.718;2023-12-28T09:06:58;96543.09;;;10.60;50.82
25392;BME280;13329;48.402;11.718;2023-12-28T09:09:24;96544.16;;;11.79;48.18
25392;BME280;13329;48.402;11.718;2023-12-28T09:11:49;96546.72;;;12.01;48.23
25392;BME280;13329;48.402;11.718;2023-12-28T09:14:14;96544.84;;;11.69;46.60
25392;BME280;13329;48.402;11.718;2023-12-28T09:16:39;96545.38;;;11.44;46.92
25392;BME280;13329;48.402;11.718;2023-12-28T09:19:07;96549.25;;;10.66;47.42
25392;BME280;13329;48.402;11.718;2023-12-28T09:21:32;96558.47;;;10.85;47.35
25392;BME280;13329;48.402;11.718;2023-12-28T09:23:57;96557.09;;;10.61;46.84
25392;BME280;13329;48.402;11.718;2023-12-28T09:26:22;96549.84;;;10.34;47.94
25392;BME280;13329;48.402;11.718;2023-12-28T09:28:48;96557.66;;;11.07;47.40
25392;BME280;13329;48.402;11.718;2023-12-28T09:31:13;96558.50;;;11.34;47.16
25392;BME280;13329;48.402;11.718;2023-12-28T09:33:38;96560.50;;;12.40;46.49
25392;BME280;13329;48.402;11.718;2023-12-28T09:36:04;96548.53;;;11.95;48.01
25392;BME280;13329;48.402;11.718;2023-12-28T09:38:29;96549.63;;;11.99;48.67
25392;BME280;13329;48.402;11.718;2023-12-28T09:40:58;96548.75;;;12.26;47.23
25392;BME280;13329;48.402;11.718;2023-12-28T09:43:35;96551.72;;;12.77;46.58
25392;BME280;13329;48.402;11.718;2023-12-28T09:46:06;96547.63;;;13.17;45.81
25392;BME280;13329;48.402;11.718;2023-12-28T09:48:33;96550.19;;;12.06;48.18
25392;BME280;13329;48.402;11.718;2023-12-28T09:50:58;96542.16;;;11.91;49.19
25392;BME280;13329;48.402;11.718;2023-12-28T09:53:24;96539.84;;;12.90;46.41
25392;BME280;13329;48.402;11.718;2023-12-28T09:55:50;96533.91;;;12.62;45.90
25392;BME280;13329;48.402;11.718;2023-12-28T09:58:20;96532.72;;;12.43;46.20
25392;BME280;13329;48.402;11.718;2023-12-28T10:00:47;96529.34;;;12.52;45.48
25392;BME280;13329;48.402;11.718;2023-12-28T10:03:14;96541.56;;;12.21;46.36
25392;BME280;13329;48.402;11.718;2023-12-28T10:05:43;96530.94;;;12.53;46.06
25392;BME280;13329;48.402;11.718;2023-12-28T10:08:11;96529.19;;;11.90;47.30
25392;BME280;13329;48.402;11.718;2023-12-28T10:10:36;96530.56;;;11.97;47.15
25392;BME280;13329;48.402;11.718;2023-12-28T10:13:01;96529.84;;;11.75;48.27
25392;BME280;13329;48.402;11.718;2023-12-28T10:15:27;96528.31;;;11.52;48.62
25392;BME280;13329;48.402;11.718;2023-12-28T10:17:52;96531.63;;;11.15;50.19
25392;BME280;13329;48.402;11.718;2023-12-28T10:20:18;96534.88;;;11.22;50.11
25392;BME280;13329;48.402;11.718;2023-12-28T10:22:44;96544.31;;;11.40;50.06
25392;BME280;13329;48.402;11.718;2023-12-28T10:25:09;96534.78;;;11.66;49.72
25392;BME280;13329;48.402;11.718;2023-12-28T10:27:38;96536.22;;;11.52;48.01
25392;BME280;13329;48.402;11.718;2023-12-28T10:30:06;96535.59;;;11.72;46.52
25392;BME280;13329;48.402;11.718;2023-12-28T10:32:32;96526.75;;;12.20;45.60
25392;BME280;13329;48.402;11.718;2023-12-28T10:34:57;96532.75;;;12.05;45.86
25392;BME280;13329;48.402;11.718;2023-12-28T10:37:26;96524.53;;;12.44;45.11
25392;BME280;13329;48.402;11.718;2023-12-28T10:39:53;96527.84;;;12.67;44.95
25392;BME280;13329;48.402;11.718;2023-12-28T10:45:10;96519.09;;;13.34;44.83
25392;BME280;13329;48.402;11.718;2023-12-28T10:47:43;96518.44;;;12.44;44.91
25392;BME280;13329;48.402;11.718;2023-12-28T10:50:10;96518.69;;;12.37;44.93
25392;BME280;13329;48.402;11.718;2023-12-28T10:52:36;96511.34;;;12.54;45.64
25392;BME280;13329;48.402;11.718;2023-12-28T10:58:03;96505.31;;;12.69;45.43
25392;BME280;13329;48.402;11.718;2023-12-28T11:00:33;96502.19;;;12.77;45.30
25392;BME280;13329;48.402;11.718;2023-12-28T11:03:06;96499.47;;;12.62;45.41
25392;BME280;13329;48.402;11.718;2023-12-28T11:05:35;96493.16;;;12.21;45.40
25392;BME280;13329;48.402;11.718;2023-12-28T11:08:02;96491.78;;;12.08;45.23
25392;BME280;13329;48.402;11.718;2023-12-28T11:10:29;96476.50;;;11.83;45.86
25392;BME280;13329;48.402;11.718;2023-12-28T11:12:56;96481.19;;;11.76;46.30
25392;BME280;13329;48.402;11.718;2023-12-28T11:15:22;96479.22;;;11.88;46.18
25392;BME280;13329;48.402;11.718;2023-12-28T11:17:48;96482.44;;;12.00;45.52
25392;BME280;13329;48.402;11.718;2023-12-28T11:20:14;96478.50;;;11.71;45.90
25392;BME280;13329;48.402;11.718;2023-12-28T11:22:41;96477.63;;;11.60;46.21
25392;BME280;13329;48.402;11.718;2023-12-28T11:25:14;96467.88;;;11.61;47.33
25392;BME280;13329;48.402;11.718;2023-12-28T11:27:39;96460.41;;;11.57;47.09
25392;BME280;13329;48.402;11.718;2023-12-28T11:30:06;96462.06;;;11.64;47.18
25392;BME280;13329;48.402;11.718;2023-12-28T11:32:38;96462.53;;;11.88;48.06
25392;BME280;13329;48.402;11.718;2023-12-28T11:35:08;96459.53;;;11.79;47.28
25392;BME280;13329;48.402;11.718;2023-12-28T11:37:36;96460.50;;;11.68;48.87
25392;BME280;13329;48.402;11.718;2023-12-28T11:40:12;96453.25;;;11.85;48.07
25392;BME280;13329;48.402;11.718;2023-12-28T11:42:50;96454.41;;;11.35;48.94
25392;BME280;13329;48.402;11.718;2023-12-28T11:45:20;96446.16;;;11.26;50.61
25392;BME280;13329;48.402;11.718;2023-12-28T11:47:45;96440.28;;;11.19;50.61
25392;BME280;13329;48.402;11.718;2023-12-28T11:50:11;96444.28;;;11.22;49.69
25392;BME280;13329;48.402;11.718;2023-12-28T11:52:37;96439.97;;;11.16;49.70
25392;BME280;13329;48.402;11.718;2023-12-28T11:55:03;96444.75;;;11.46;48.59
25392;BME280;13329;48.402;11.718;2023-12-28T11:57:29;96453.88;;;11.33;50.27
25392;BME280;13329;48.402;11.718;2023-12-28T12:00:01;96450.88;;;11.24;50.13
25392;BME280;13329;48.402;11.718;2023-12-28T12:02:30;96457.06;;;11.35;49.89
25392;BME280;13329;48.402;11.718;2023-12-28T12:04:55;96457.53;;;11.27;50.14
25392;BME280;13329;48.402;11.718;2023-12-28T12:07:26;96447.56;;;11.07;51.08
25392;BME280;13329;48.402;11.718;2023-12-28T12:09:56;96452.50;;;10.98;51.26
25392;BME280;13329;48.402;11.718;2023-12-28T12:12:22;96448.38;;;11.08;48.74
25392;BME280;13329;48.402;11.718;2023-12-28T12:14:47;96448.94;;;11.15;47.72
25392;BME280;13329;48.402;11.718;2023-12-28T12:17:12;96449.16;;;11.08;49.13
25392;BME280;13329;48.402;11.718;2023-12-28T12:19:38;96443.88;;;11.08;49.10
25392;BME280;13329;48.402;11.718;2023-12-28T12:22:03;96441.78;;;10.83;49.55
25392;BME280;13329;48.402;11.718;2023-12-28T12:24:30;96437.53;;;10.82;50.67
25392;BME280;13329;48.402;11.718;2023-12-28T12:26:57;96442.47;;;10.73;50.85
25392;BME280;13329;48.402;11.718;2023-12-28T12:29:22;96442.84;;;10.60;51.85
25392;BME280;13329;48.402;11.718;2023-12-28T12:31:48;96440.44;;;10.59;50.51
25392;BME280;13329;48.402;11.718;2023-12-28T12:34:16;96443.16;;;10.91;49.39
25392;BME280;13329;48.402;11.718;2023-12-28T12:36:42;96434.88;;;10.82;49.07
25392;BME280;13329;48.402;11.718;2023-12-28T12:39:10;96425.03;;;10.99;48.08
25392;BME280;13329;48.402;11.718;2023-12-28T12:41:36;96428.63;;;10.88;48.30
25392;BME280;13329;48.402;11.718;2023-12-28T12:44:02;96430.31;;;10.99;47.71
25392;BME280;13329;48.402;11.718;2023-12-28T12:46:30;96435.38;;;11.06;48.35
25392;BME280;13329;48.402;11.718;2023-12-28T12:48:59;96443.09;;;11.08;48.21
25392;BME280;13329;48.402;11.718;2023-12-28T12:51:25;96432.38;;;10.92;49.76
25392;BME280;13329;48.402;11.718;2023-12-28T12:53:59;96429.16;;;10.90;49.82
25392;BME280;13329;48.402;11.718;2023-12-28T12:56:27;96429.06;;;10.80;50.36